createdAt,value
2023-10-26T00:01:08.969Z,45.07
2023-10-26T00:04:16.171Z,44.74
2023-10-26T00:07:24.142Z,43.58
2023-10-26T00:10:31.581Z,43.76
2023-10-26T00:13:42.201Z,42.28
2023-10-26T00:16:49.829Z,42.40
2023-10-26T00:19:59.346Z,40.45
2023-10-26T00:23:08.582Z,39.82
2023-10-26T00:26:16.712Z,40.21
2023-10-26T00:29:31.399Z,40.59
2023-10-26T00:32:39.664Z,39.28
2023-10-26T00:35:46.833Z,38.28
2023-10-26T00:38:54.902Z,37.45
2023-10-26T00:42:02.633Z,37.08
2023-10-26T00:45:14.171Z,36.89
2023-10-26T00:48:23.719Z,33.71
2023-10-26T00:51:32.977Z,33.97
2023-10-26T00:54:45.593Z,33.32
2023-10-26T00:57:54.274Z,32.58
2023-10-26T01:01:05.364Z,33.58
2023-10-26T01:04:25.205Z,33.87
2023-10-26T01:07:32.311Z,35.20
2023-10-26T01:10:41.414Z,34.70
2023-10-26T01:13:48.664Z,36.47
2023-10-26T01:17:05.498Z,38.20
2023-10-26T01:20:23.506Z,37.83
2023-10-26T01:23:34.706Z,36.35
2023-10-26T01:26:41.971Z,36.95
2023-10-26T01:29:50.029Z,38.25
2023-10-26T01:32:57.288Z,37.69
2023-10-26T01:36:05.426Z,38.06
2023-10-26T01:39:16.040Z,37.70
2023-10-26T01:42:24.087Z,37.87
2023-10-26T01:45:31.402Z,38.18
2023-10-26T01:48:39.787Z,38.30
2023-10-26T01:51:46.923Z,37.95
2023-10-26T01:54:57.612Z,38.89
2023-10-26T01:58:05.431Z,38.08
2023-10-26T02:01:13.593Z,37.90
2023-10-26T02:04:20.820Z,38.61
2023-10-26T02:07:28.980Z,37.92
2023-10-26T02:10:39.574Z,37.24
2023-10-26T02:13:57.337Z,38.42
2023-10-26T02:17:05.396Z,37.50
2023-10-26T02:20:15.475Z,37.09
2023-10-26T02:23:22.765Z,37.68
2023-10-26T02:26:33.484Z,37.53
2023-10-26T02:29:41.159Z,35.59
2023-10-26T02:32:49.296Z,37.16
2023-10-26T02:35:56.587Z,33.99
2023-10-26T02:39:05.378Z,33.92
2023-10-26T02:42:16.388Z,34.36
2023-10-26T02:45:26.825Z,36.41
2023-10-26T02:48:34.264Z,35.91
2023-10-26T02:51:42.378Z,36.63
2023-10-26T02:54:50.751Z,37.73
2023-10-26T02:58:01.486Z,39.25
2023-10-26T03:01:08.807Z,40.12
2023-10-26T03:04:17.021Z,40.44
2023-10-26T03:07:25.382Z,39.85
2023-10-26T03:10:33.409Z,40.56
2023-10-26T03:13:44.019Z,38.62
2023-10-26T03:16:52.338Z,39.65
2023-10-26T03:19:59.824Z,41.88
2023-10-26T03:23:08.955Z,41.19
2023-10-26T03:26:16.268Z,40.99
2023-10-26T03:29:26.885Z,39.73
2023-10-26T03:32:46.540Z,40.16
2023-10-26T03:35:54.532Z,40.39
2023-10-26T03:39:02.601Z,39.53
2023-10-26T03:42:24.894Z,39.75
2023-10-26T03:45:34.953Z,40.71
2023-10-26T03:48:43.041Z,38.71
2023-10-26T03:51:50.944Z,39.36
2023-10-26T03:55:02.705Z,39.96
2023-10-26T03:58:09.898Z,39.93
2023-10-26T04:01:20.407Z,38.87
2023-10-26T04:04:27.610Z,40.55
2023-10-26T04:07:35.658Z,35.12
2023-10-26T04:10:42.829Z,32.57
2023-10-26T04:13:51.071Z,29.51
2023-10-26T04:17:00.907Z,30.40
2023-10-26T04:20:12.140Z,32.62
2023-10-26T04:23:19.729Z,34.20
2023-10-26T04:26:27.774Z,35.19
2023-10-26T04:29:35.118Z,37.54
2023-10-26T04:32:46.161Z,39.15
2023-10-26T04:35:53.702Z,40.04
2023-10-26T04:39:02.659Z,36.86
2023-10-26T04:42:10.120Z,37.97
2023-10-26T04:45:18.441Z,35.78
2023-10-26T04:48:28.424Z,36.07
2023-10-26T04:51:36.560Z,36.71
2023-10-26T04:54:43.958Z,37.70
2023-10-26T04:57:52.033Z,35.70
2023-10-26T05:01:01.356Z,37.19
2023-10-26T05:04:12.131Z,35.62
2023-10-26T05:07:19.236Z,35.64
2023-10-26T05:10:31.873Z,41.07
2023-10-26T05:13:39.344Z,37.89
2023-10-26T05:16:47.464Z,37.76
2023-10-26T05:19:57.296Z,38.13
2023-10-26T05:23:07.187Z,38.76
2023-10-26T05:26:14.680Z,35.62
2023-10-26T05:29:22.735Z,34.83
2023-10-26T05:32:30.534Z,32.76
2023-10-26T05:35:41.275Z,31.20
2023-10-26T05:38:48.600Z,29.18
2023-10-26T05:41:56.715Z,29.89
2023-10-26T05:45:04.284Z,30.36
2023-10-26T05:48:12.759Z,30.75
2023-10-26T05:51:22.685Z,30.87
2023-10-26T05:54:31.108Z,32.58
2023-10-26T05:57:38.401Z,31.56
2023-10-26T06:00:46.396Z,30.93
2023-10-26T06:03:56.706Z,29.48
2023-10-26T06:07:07.955Z,28.89
2023-10-26T06:10:15.259Z,29.29
2023-10-26T06:13:23.438Z,30.47
2023-10-26T06:16:31.753Z,31.15
2023-10-26T06:19:44.487Z,30.98
2023-10-26T06:23:00.430Z,30.71
2023-10-26T06:26:11.066Z,31.87
2023-10-26T06:29:18.345Z,31.60
2023-10-26T06:32:26.401Z,30.57
2023-10-26T06:35:33.869Z,30.92
2023-10-26T06:38:45.439Z,32.17
2023-10-26T06:41:52.749Z,31.81
2023-10-26T06:45:04.390Z,28.79
2023-10-26T06:48:13.123Z,26.64
2023-10-26T06:51:23.944Z,24.85
2023-10-26T06:54:33.768Z,23.84
2023-10-26T06:57:41.940Z,22.96
2023-10-26T07:00:50.116Z,21.20
2023-10-26T07:04:05.976Z,19.92
2023-10-26T07:07:13.301Z,18.31
2023-10-26T07:10:24.183Z,16.49
2023-10-26T07:13:31.845Z,15.73
2023-10-26T07:16:39.943Z,13.14
2023-10-26T07:19:47.203Z,10.87
2023-10-26T07:22:55.185Z,9.46
2023-10-26T07:26:05.565Z,8.74
2023-10-26T07:29:13.459Z,7.84
2023-10-26T07:32:27.480Z,8.00
2023-10-26T07:35:41.958Z,7.54
2023-10-26T07:39:43.647Z,6.41
2023-10-26T07:42:20.394Z,5.89
2023-10-26T07:45:29.485Z,6.49
2023-10-26T07:48:38.271Z,7.19
2023-10-26T07:51:45.448Z,5.56
2023-10-26T07:54:53.553Z,5.68
2023-10-26T07:58:03.471Z,5.51
2023-10-26T08:01:13.936Z,5.31
2023-10-26T08:04:21.199Z,5.05
2023-10-26T08:07:29.292Z,4.51
2023-10-26T08:10:38.639Z,4.91
2023-10-26T08:13:49.811Z,5.18
2023-10-26T08:17:01.202Z,5.52
2023-10-26T08:20:11.383Z,5.73
2023-10-26T08:23:18.940Z,6.22
2023-10-26T08:26:26.865Z,4.83
2023-10-26T08:29:36.632Z,4.64
2023-10-26T08:32:45.223Z,4.43
2023-10-26T08:35:53.782Z,3.64
2023-10-26T08:39:05.653Z,3.72
2023-10-26T08:42:14.550Z,3.28
2023-10-26T08:45:29.548Z,3.12
2023-10-26T08:48:41.304Z,3.09
2023-10-26T08:51:49.519Z,2.85
2023-10-26T08:54:57.398Z,2.87
2023-10-26T08:58:06.079Z,3.89
2023-10-26T09:01:16.514Z,3.67
2023-10-26T09:04:24.674Z,3.93
2023-10-26T09:07:32.171Z,3.61
2023-10-26T09:10:40.738Z,3.72
2023-10-26T09:13:48.789Z,3.86
2023-10-26T09:17:01.529Z,4.25
2023-10-26T09:20:22.788Z,3.58
2023-10-26T09:23:32.341Z,3.15
2023-10-26T09:26:43.768Z,3.16
2023-10-26T09:29:51.689Z,3.35
2023-10-26T09:33:02.653Z,2.82
2023-10-26T09:36:16.930Z,3.08
2023-10-26T09:39:24.324Z,3.06
2023-10-26T09:42:32.450Z,2.87
2023-10-26T09:45:40.079Z,2.55
2023-10-26T09:48:53.152Z,2.58
2023-10-26T09:52:00.550Z,2.52
2023-10-26T09:55:14.190Z,2.90
2023-10-26T09:58:23.976Z,3.00
2023-10-26T10:01:38.723Z,2.97
2023-10-26T10:04:50.079Z,3.22
2023-10-26T10:07:58.046Z,4.20
2023-10-26T10:11:21.669Z,3.78
2023-10-26T10:15:22.270Z,3.45
2023-10-26T10:18:29.927Z,3.70
2023-10-26T10:21:41.221Z,2.98
2023-10-26T10:24:57.628Z,3.09
2023-10-26T10:28:15.771Z,3.38
2023-10-26T10:31:42.952Z,3.61
2023-10-26T10:34:55.027Z,4.35
2023-10-26T10:38:28.127Z,4.36
2023-10-26T10:41:40.476Z,5.22
2023-10-26T10:44:49.090Z,4.42
2023-10-26T10:47:57.003Z,3.91
2023-10-26T10:51:04.444Z,3.34
2023-10-26T10:54:26.941Z,3.53
2023-10-26T10:57:37.906Z,3.57
2023-10-26T11:00:50.372Z,3.57
2023-10-26T11:04:11.591Z,3.95
2023-10-26T11:07:21.320Z,5.06
2023-10-26T11:10:32.443Z,5.00
2023-10-26T11:13:40.472Z,3.54
2023-10-26T11:16:48.263Z,3.23
2023-10-26T11:19:57.718Z,3.64
2023-10-26T11:23:05.392Z,3.87
2023-10-26T11:26:21.809Z,5.38
2023-10-26T11:29:37.292Z,4.68
2023-10-26T11:32:48.481Z,3.36
2023-10-26T11:35:55.796Z,5.27
2023-10-26T11:39:03.879Z,6.97
2023-10-26T11:42:13.973Z,6.07
2023-10-26T11:45:27.354Z,5.18
2023-10-26T11:48:35.339Z,4.19
2023-10-26T11:51:47.528Z,4.39
2023-10-26T11:55:02.599Z,3.83
2023-10-26T11:58:16.268Z,4.55
2023-10-26T12:01:23.489Z,4.35
2023-10-26T12:04:31.511Z,3.32
2023-10-26T12:07:39.028Z,3.02
2023-10-26T12:10:48.728Z,3.97
2023-10-26T12:13:58.503Z,5.95
2023-10-26T12:17:15.009Z,5.79
2023-10-26T12:20:22.804Z,3.61
2023-10-26T12:23:30.903Z,3.60
2023-10-26T12:26:40.037Z,2.69
2023-10-26T12:29:51.562Z,2.99
2023-10-26T12:32:58.750Z,3.27
2023-10-26T12:36:24.322Z,6.18
2023-10-26T12:39:31.529Z,5.68
2023-10-26T12:42:40.958Z,7.86
2023-10-26T12:45:51.060Z,6.52
2023-10-26T12:48:59.191Z,6.72
2023-10-26T12:52:06.872Z,4.58
2023-10-26T12:55:14.950Z,4.82
2023-10-26T12:58:34.046Z,6.74
2023-10-26T13:01:50.710Z,6.86
2023-10-26T13:04:57.912Z,7.19
2023-10-26T13:08:06.678Z,6.80
2023-10-26T13:11:14.246Z,5.81
2023-10-26T13:14:22.348Z,5.49
2023-10-26T13:17:32.396Z,4.91
2023-10-26T13:20:40.712Z,3.91
2023-10-26T13:23:48.383Z,3.52
2023-10-26T13:26:56.932Z,3.80
2023-10-26T13:30:05.410Z,3.71
2023-10-26T13:33:16.040Z,4.59
2023-10-26T13:36:23.222Z,4.85
2023-10-26T13:39:31.597Z,5.09
2023-10-26T13:42:38.968Z,6.06
2023-10-26T13:45:48.190Z,5.32
2023-10-26T13:48:58.160Z,3.87
2023-10-26T13:52:06.984Z,3.90
2023-10-26T13:55:14.598Z,3.90
2023-10-26T13:58:22.670Z,4.23
2023-10-26T14:01:30.425Z,3.91
2023-10-26T14:04:41.154Z,4.27
2023-10-26T14:07:48.536Z,3.95
2023-10-26T14:10:56.714Z,4.12
2023-10-26T14:14:05.312Z,4.80
2023-10-26T14:17:13.451Z,4.13
2023-10-26T14:20:23.451Z,4.31
2023-10-26T14:23:31.459Z,4.64
2023-10-26T14:26:38.505Z,4.41
2023-10-26T14:29:46.436Z,4.87
2023-10-26T14:32:53.761Z,4.92
2023-10-26T14:36:06.601Z,5.20
2023-10-26T14:39:13.721Z,5.20
2023-10-26T14:42:21.768Z,6.11
2023-10-26T14:45:30.008Z,6.34
2023-10-26T14:48:38.055Z,6.33
2023-10-26T14:51:48.771Z,5.87
2023-10-26T14:54:56.730Z,4.98
2023-10-26T14:58:03.948Z,4.77
2023-10-26T15:01:15.294Z,4.70
2023-10-26T15:04:22.597Z,4.91
2023-10-26T15:07:35.030Z,5.10
2023-10-26T15:10:48.131Z,4.63
2023-10-26T15:13:57.913Z,5.49
2023-10-26T15:17:05.404Z,6.23
2023-10-26T15:20:14.304Z,6.16
2023-10-26T15:23:33.384Z,5.79
2023-10-26T15:26:41.337Z,5.05
2023-10-26T15:29:48.735Z,5.44
2023-10-26T15:32:56.908Z,5.46
2023-10-26T15:36:05.029Z,6.61
2023-10-26T15:39:17.386Z,7.51
2023-10-26T15:42:25.159Z,8.04
2023-10-26T15:45:33.339Z,7.24
2023-10-26T15:49:31.880Z,7.94
2023-10-26T15:52:09.901Z,10.42
2023-10-26T15:55:22.165Z,17.46
2023-10-26T15:58:31.036Z,9.65
2023-10-26T16:01:38.336Z,8.22
2023-10-26T16:04:46.653Z,11.83
2023-10-26T16:07:54.437Z,9.80
2023-10-26T16:11:05.516Z,10.15
2023-10-26T16:14:12.961Z,12.32
2023-10-26T16:17:21.179Z,16.98
2023-10-26T16:20:29.191Z,16.12
2023-10-26T16:23:37.494Z,14.85
2023-10-26T16:26:48.512Z,12.51
2023-10-26T16:29:57.475Z,8.88
2023-10-26T16:33:05.498Z,8.48
2023-10-26T16:36:13.660Z,8.03
2023-10-26T16:39:21.311Z,7.18
2023-10-26T16:42:32.025Z,8.13
2023-10-26T16:45:45.428Z,8.25
2023-10-26T16:48:53.876Z,11.27
2023-10-26T16:52:14.234Z,11.58
2023-10-26T16:55:22.565Z,11.36
2023-10-26T16:58:33.021Z,9.65
2023-10-26T17:01:44.627Z,8.31
2023-10-26T17:04:56.822Z,8.52
2023-10-26T17:08:15.914Z,8.79
2023-10-26T17:11:24.873Z,9.21
2023-10-26T17:14:42.801Z,11.03
2023-10-26T17:17:51.072Z,11.81
2023-10-26T17:21:02.923Z,11.56
2023-10-26T17:24:12.601Z,10.86
2023-10-26T17:27:21.721Z,10.64
2023-10-26T17:30:33.278Z,13.04
2023-10-26T17:33:43.035Z,17.39
2023-10-26T17:37:10.878Z,17.42
2023-10-26T17:40:20.745Z,14.82
2023-10-26T17:43:28.392Z,13.47
2023-10-26T17:46:39.743Z,12.33
2023-10-26T17:49:47.406Z,11.31
2023-10-26T17:53:16.979Z,12.05
2023-10-26T17:56:36.466Z,12.86
2023-10-26T18:00:01.665Z,13.27
2023-10-26T18:03:29.887Z,17.34
2023-10-26T18:06:38.067Z,17.37
2023-10-26T18:09:45.703Z,17.75
2023-10-26T18:12:54.205Z,19.48
2023-10-26T18:16:09.324Z,19.09
2023-10-26T18:19:20.240Z,19.27
2023-10-26T18:22:27.493Z,18.18
2023-10-26T18:25:35.469Z,16.50
2023-10-26T18:28:46.073Z,15.50
2023-10-26T18:31:55.003Z,15.21
2023-10-26T18:35:06.893Z,14.54
2023-10-26T18:38:14.991Z,14.66
2023-10-26T18:41:25.377Z,14.59
2023-10-26T18:44:33.423Z,14.42
2023-10-26T18:47:40.730Z,12.25
2023-10-26T18:50:54.110Z,12.53
2023-10-26T18:54:01.284Z,13.55
2023-10-26T18:57:09.449Z,14.50
2023-10-26T19:00:18.344Z,15.15
2023-10-26T19:03:28.078Z,17.37
2023-10-26T19:06:41.053Z,18.59
2023-10-26T19:09:49.510Z,19.39
2023-10-26T19:12:57.400Z,20.16
2023-10-26T19:16:08.019Z,16.51
2023-10-26T19:19:15.581Z,16.29
2023-10-26T19:22:26.327Z,15.76
2023-10-26T19:25:34.402Z,16.25
2023-10-26T19:28:42.529Z,17.01
2023-10-26T19:31:49.746Z,17.01
2023-10-26T19:34:58.535Z,17.11
2023-10-26T19:38:09.181Z,16.60
2023-10-26T19:41:18.972Z,17.17
2023-10-26T19:44:26.469Z,15.34
2023-10-26T19:47:35.714Z,14.59
2023-10-26T19:50:42.979Z,15.52
2023-10-26T19:53:53.645Z,19.28
2023-10-26T19:57:00.798Z,25.51
2023-10-26T20:00:15.144Z,19.63
2023-10-26T20:03:24.174Z,17.54
2023-10-26T20:06:32.265Z,15.04
2023-10-26T20:09:43.225Z,14.70
2023-10-26T20:12:51.405Z,15.07
2023-10-26T20:16:00.618Z,15.12
2023-10-26T20:19:09.241Z,15.28
2023-10-26T20:22:16.626Z,13.72
2023-10-26T20:25:27.285Z,14.52
2023-10-26T20:28:34.487Z,15.51
2023-10-26T20:31:43.156Z,16.15
2023-10-26T20:34:50.373Z,16.95
2023-10-26T20:37:58.386Z,16.88
2023-10-26T20:41:10.735Z,17.35
2023-10-26T20:44:18.909Z,17.38
2023-10-26T20:47:26.321Z,16.96
2023-10-26T20:50:35.418Z,15.75
2023-10-26T20:53:44.118Z,15.13
2023-10-26T20:56:54.772Z,15.64
2023-10-26T21:00:02.587Z,17.48
2023-10-26T21:03:10.776Z,19.17
2023-10-26T21:06:18.158Z,21.84
2023-10-26T21:09:26.854Z,23.79
2023-10-26T21:12:36.716Z,23.17
2023-10-26T21:15:44.861Z,23.06
2023-10-26T21:18:53.615Z,22.00
2023-10-26T21:22:03.682Z,20.56
2023-10-26T21:25:29.766Z,21.40
2023-10-26T21:28:43.267Z,20.97
2023-10-26T21:31:50.713Z,14.84
2023-10-26T21:34:58.692Z,11.45
2023-10-26T21:38:07.976Z,10.74
2023-10-26T21:41:16.035Z,10.08
2023-10-26T21:44:25.855Z,10.86
2023-10-26T21:47:38.922Z,10.90
2023-10-26T21:50:46.201Z,11.34
2023-10-26T21:53:54.249Z,10.84
2023-10-26T21:57:01.390Z,11.00
2023-10-26T22:00:23.809Z,10.43
2023-10-26T22:03:38.731Z,9.88
2023-10-26T22:06:50.834Z,9.24
2023-10-26T22:09:58.534Z,10.00
2023-10-26T22:13:11.174Z,9.54
2023-10-26T22:16:34.748Z,10.00
2023-10-26T22:19:43.151Z,10.76
2023-10-26T22:22:53.387Z,11.31
2023-10-26T22:26:02.536Z,11.71
2023-10-26T22:29:27.142Z,11.67
2023-10-26T22:32:40.774Z,11.98
2023-10-26T22:35:48.059Z,12.54
2023-10-26T22:38:57.273Z,12.68
2023-10-26T22:42:05.437Z,14.09
2023-10-26T22:45:14.878Z,14.95
2023-10-26T22:48:25.361Z,15.77
2023-10-26T22:51:34.031Z,14.85
2023-10-26T22:54:49.482Z,15.34
2023-10-26T22:57:57.551Z,15.80
2023-10-26T23:01:17.739Z,18.35
2023-10-26T23:04:34.847Z,17.95
2023-10-26T23:07:43.458Z,17.25
2023-10-26T23:10:51.501Z,16.95
2023-10-26T23:14:03.455Z,15.33
2023-10-26T23:17:11.535Z,16.13
2023-10-26T23:20:21.653Z,17.26
2023-10-26T23:23:29.608Z,17.59
2023-10-26T23:26:37.001Z,19.12
2023-10-26T23:29:45.127Z,21.24
2023-10-26T23:32:54.646Z,18.89
2023-10-26T23:36:08.106Z,15.72
2023-10-26T23:39:15.313Z,15.20
2023-10-26T23:42:23.972Z,17.06
2023-10-26T23:45:32.305Z,14.64
2023-10-26T23:48:40.517Z,13.74
2023-10-26T23:51:50.426Z,12.34
2023-10-26T23:54:58.502Z,11.87
2023-10-26T23:58:06.392Z,12.23
